sensor_id;sensor_type;location;lat;lon;timestamp;P1;durP1;ratioP1;P2;durP2;ratioP2
23370;SDS011;11858;51.056;3.712;2022-09-01T00:01:50;15.77;;;14.40;;
23370;SDS011;11858;51.056;3.712;2022-09-01T00:04:19;14.80;;;13.63;;
23370;SDS011;11858;51.056;3.712;2022-09-01T00:06:49;17.60;;;14.55;;
23370;SDS011;11858;51.056;3.712;2022-09-01T00:09:20;15.38;;;14.07;;
23370;SDS011;11858;51.056;3.712;2022-09-01T00:11:49;15.73;;;14.48;;
23370;SDS011;11858;51.056;3.712;2022-09-01T00:14:17;15.80;;;14.35;;
23370;SDS011;11858;51.056;3.712;2022-09-01T00:16:47;16.37;;;15.03;;
23370;SDS011;11858;51.056;3.712;2022-09-01T00:19:14;15.70;;;14.50;;
23370;SDS011;11858;51.056;3.712;2022-09-01T00:21:41;16.20;;;14.85;;
23370;SDS011;11858;51.056;3.712;2022-09-01T00:24:08;15.98;;;14.63;;
23370;SDS011;11858;51.056;3.712;2022-09-01T00:26:37;15.40;;;14.00;;
23370;SDS011;11858;51.056;3.712;2022-09-01T00:29:04;16.13;;;14.27;;
23370;SDS011;11858;51.056;3.712;2022-09-01T00:31:31;15.30;;;14.10;;
23370;SDS011;11858;51.056;3.712;2022-09-01T00:33:58;16.73;;;15.23;;
23370;SDS011;11858;51.056;3.712;2022-09-01T00:36:25;16.17;;;14.65;;
23370;SDS011;11858;51.056;3.712;2022-09-01T00:38:52;16.35;;;15.05;;
23370;SDS011;11858;51.056;3.712;2022-09-01T00:41:22;15.77;;;14.35;;
23370;SDS011;11858;51.056;3.712;2022-09-01T00:43:52;17.10;;;15.60;;
23370;SDS011;11858;51.056;3.712;2022-09-01T00:46:21;16.30;;;14.98;;
23370;SDS011;11858;51.056;3.712;2022-09-01T00:48:53;17.20;;;15.80;;
23370;SDS011;11858;51.056;3.712;2022-09-01T00:51:24;16.63;;;15.15;;
23370;SDS011;11858;51.056;3.712;2022-09-01T00:53:50;16.42;;;15.13;;
23370;SDS011;11858;51.056;3.712;2022-09-01T00:56:17;17.33;;;15.57;;
23370;SDS011;11858;51.056;3.712;2022-09-01T00:58:43;16.15;;;14.93;;
23370;SDS011;11858;51.056;3.712;2022-09-01T01:01:10;15.65;;;14.38;;
23370;SDS011;11858;51.056;3.712;2022-09-01T01:03:37;16.38;;;15.02;;
23370;SDS011;11858;51.056;3.712;2022-09-01T01:06:09;16.05;;;14.70;;
23370;SDS011;11858;51.056;3.712;2022-09-01T01:08:39;16.75;;;15.30;;
23370;SDS011;11858;51.056;3.712;2022-09-01T01:11:12;16.80;;;15.50;;
23370;SDS011;11858;51.056;3.712;2022-09-01T01:13:56;16.48;;;15.30;;
23370;SDS011;11858;51.056;3.712;2022-09-01T01:16:43;16.85;;;15.50;;
23370;SDS011;11858;51.056;3.712;2022-09-01T01:19:11;17.00;;;15.70;;
23370;SDS011;11858;51.056;3.712;2022-09-01T01:22:01;16.88;;;15.50;;
23370;SDS011;11858;51.056;3.712;2022-09-01T01:24:46;16.30;;;15.13;;
23370;SDS011;11858;51.056;3.712;2022-09-01T01:27:12;17.33;;;15.45;;
23370;SDS011;11858;51.056;3.712;2022-09-01T01:29:41;15.88;;;14.77;;
23370;SDS011;11858;51.056;3.712;2022-09-01T01:32:08;16.45;;;15.18;;
23370;SDS011;11858;51.056;3.712;2022-09-01T01:34:36;16.15;;;14.93;;
23370;SDS011;11858;51.056;3.712;2022-09-01T01:37:03;16.23;;;14.98;;
23370;SDS011;11858;51.056;3.712;2022-09-01T01:39:29;16.13;;;14.70;;
23370;SDS011;11858;51.056;3.712;2022-09-01T01:41:57;16.52;;;14.90;;
23370;SDS011;11858;51.056;3.712;2022-09-01T01:44:25;16.92;;;15.45;;
23370;SDS011;11858;51.056;3.712;2022-09-01T01:46:55;15.80;;;14.68;;
23370;SDS011;11858;51.056;3.712;2022-09-01T01:49:22;16.60;;;15.10;;
23370;SDS011;11858;51.056;3.712;2022-09-01T01:51:52;16.85;;;15.23;;
23370;SDS011;11858;51.056;3.712;2022-09-01T01:54:22;16.48;;;15.00;;
23370;SDS011;11858;51.056;3.712;2022-09-01T01:56:49;16.05;;;14.68;;
23370;SDS011;11858;51.056;3.712;2022-09-01T01:59:15;16.60;;;15.20;;
23370;SDS011;11858;51.056;3.712;2022-09-01T02:01:43;16.70;;;15.18;;
23370;SDS011;11858;51.056;3.712;2022-09-01T02:04:17;16.17;;;14.75;;
23370;SDS011;11858;51.056;3.712;2022-09-01T02:06:45;16.95;;;15.35;;
23370;SDS011;11858;51.056;3.712;2022-09-01T02:09:15;16.75;;;15.20;;
23370;SDS011;11858;51.056;3.712;2022-09-01T02:11:43;17.48;;;15.40;;
23370;SDS011;11858;51.056;3.712;2022-09-01T02:14:09;16.08;;;14.90;;
23370;SDS011;11858;51.056;3.712;2022-09-01T02:16:37;16.30;;;14.80;;
23370;SDS011;11858;51.056;3.712;2022-09-01T02:19:04;15.77;;;14.52;;
23370;SDS011;11858;51.056;3.712;2022-09-01T02:21:33;16.10;;;15.00;;
23370;SDS011;11858;51.056;3.712;2022-09-01T02:23:59;17.20;;;15.40;;
23370;SDS011;11858;51.056;3.712;2022-09-01T02:26:28;15.90;;;14.65;;
23370;SDS011;11858;51.056;3.712;2022-09-01T02:28:59;16.85;;;15.45;;
23370;SDS011;11858;51.056;3.712;2022-09-01T02:31:29;16.52;;;14.90;;
23370;SDS011;11858;51.056;3.712;2022-09-01T02:33:59;16.00;;;14.80;;
23370;SDS011;11858;51.056;3.712;2022-09-01T02:36:28;15.75;;;14.60;;
23370;SDS011;11858;51.056;3.712;2022-09-01T02:38:56;16.15;;;14.95;;
23370;SDS011;11858;51.056;3.712;2022-09-01T02:41:22;20.00;;;15.02;;
23370;SDS011;11858;51.056;3.712;2022-09-01T02:43:53;16.48;;;15.27;;
23370;SDS011;11858;51.056;3.712;2022-09-01T02:46:19;17.55;;;15.70;;
23370;SDS011;11858;51.056;3.712;2022-09-01T02:48:47;17.10;;;15.45;;
23370;SDS011;11858;51.056;3.712;2022-09-01T02:51:16;16.08;;;14.75;;
23370;SDS011;11858;51.056;3.712;2022-09-01T02:53:45;17.45;;;15.48;;
23370;SDS011;11858;51.056;3.712;2022-09-01T02:56:16;16.50;;;15.15;;
23370;SDS011;11858;51.056;3.712;2022-09-01T02:58:43;17.15;;;15.82;;
23370;SDS011;11858;51.056;3.712;2022-09-01T03:01:15;16.25;;;15.05;;
23370;SDS011;11858;51.056;3.712;2022-09-01T03:03:54;20.70;;;19.25;;
23370;SDS011;11858;51.056;3.712;2022-09-01T03:06:23;21.42;;;19.67;;
23370;SDS011;11858;51.056;3.712;2022-09-01T03:08:50;21.13;;;19.45;;
23370;SDS011;11858;51.056;3.712;2022-09-01T03:11:18;20.80;;;19.00;;
23370;SDS011;11858;51.056;3.712;2022-09-01T03:13:45;20.30;;;18.80;;
23370;SDS011;11858;51.056;3.712;2022-09-01T03:16:11;20.85;;;18.95;;
23370;SDS011;11858;51.056;3.712;2022-09-01T03:18:39;20.42;;;18.65;;
23370;SDS011;11858;51.056;3.712;2022-09-01T03:21:06;20.50;;;18.92;;
23370;SDS011;11858;51.056;3.712;2022-09-01T03:23:32;20.13;;;18.45;;
23370;SDS011;11858;51.056;3.712;2022-09-01T03:25:58;20.63;;;19.17;;
23370;SDS011;11858;51.056;3.712;2022-09-01T03:28:25;20.65;;;19.05;;
23370;SDS011;11858;51.056;3.712;2022-09-01T03:30:52;20.08;;;18.60;;
23370;SDS011;11858;51.056;3.712;2022-09-01T03:33:20;20.55;;;18.90;;
23370;SDS011;11858;51.056;3.712;2022-09-01T03:35:50;20.77;;;19.20;;
23370;SDS011;11858;51.056;3.712;2022-09-01T03:38:16;19.75;;;18.30;;
23370;SDS011;11858;51.056;3.712;2022-09-01T03:40:52;20.40;;;18.85;;
23370;SDS011;11858;51.056;3.712;2022-09-01T03:43:30;20.67;;;18.92;;
23370;SDS011;11858;51.056;3.712;2022-09-01T03:45:58;20.30;;;18.60;;
23370;SDS011;11858;51.056;3.712;2022-09-01T03:48:26;18.50;;;17.10;;
23370;SDS011;11858;51.056;3.712;2022-09-01T03:50:53;19.63;;;18.13;;
23370;SDS011;11858;51.056;3.712;2022-09-01T03:53:21;20.58;;;18.63;;
23370;SDS011;11858;51.056;3.712;2022-09-01T03:55:51;20.30;;;18.65;;
23370;SDS011;11858;51.056;3.712;2022-09-01T03:58:19;17.67;;;15.75;;
23370;SDS011;11858;51.056;3.712;2022-09-01T04:00:46;16.85;;;15.40;;
23370;SDS011;11858;51.056;3.712;2022-09-01T04:03:19;16.95;;;15.20;;
23370;SDS011;11858;51.056;3.712;2022-09-01T04:05:51;16.17;;;14.75;;
23370;SDS011;11858;51.056;3.712;2022-09-01T04:08:19;18.83;;;14.40;;
23370;SDS011;11858;51.056;3.712;2022-09-01T04:10:52;15.90;;;14.60;;
23370;SDS011;11858;51.056;3.712;2022-09-01T04:13:21;16.20;;;14.65;;
23370;SDS011;11858;51.056;3.712;2022-09-01T04:15:54;18.05;;;15.02;;
23370;SDS011;11858;51.056;3.712;2022-09-01T04:18:21;15.88;;;14.40;;
23370;SDS011;11858;51.056;3.712;2022-09-01T04:20:48;16.60;;;15.10;;
23370;SDS011;11858;51.056;3.712;2022-09-01T04:23:24;17.20;;;15.07;;
23370;SDS011;11858;51.056;3.712;2022-09-01T04:26:02;16.70;;;15.30;;
23370;SDS011;11858;51.056;3.712;2022-09-01T04:28:43;16.60;;;15.20;;
23370;SDS011;11858;51.056;3.712;2022-09-01T04:31:12;16.10;;;14.90;;
23370;SDS011;11858;51.056;3.712;2022-09-01T04:33:43;16.75;;;15.13;;
23370;SDS011;11858;51.056;3.712;2022-09-01T04:36:15;15.82;;;14.55;;
23370;SDS011;11858;51.056;3.712;2022-09-01T04:38:44;16.58;;;15.18;;
23370;SDS011;11858;51.056;3.712;2022-09-01T04:41:11;16.95;;;15.27;;
23370;SDS011;11858;51.056;3.712;2022-09-01T04:43:42;16.05;;;14.85;;
23370;SDS011;11858;51.056;3.712;2022-09-01T04:46:10;16.23;;;14.73;;
23370;SDS011;11858;51.056;3.712;2022-09-01T04:48:38;16.05;;;14.93;;
23370;SDS011;11858;51.056;3.712;2022-09-01T04:51:07;17.00;;;15.38;;
23370;SDS011;11858;51.056;3.712;2022-09-01T04:53:34;16.77;;;15.40;;
23370;SDS011;11858;51.056;3.712;2022-09-01T04:56:02;17.42;;;15.60;;
23370;SDS011;11858;51.056;3.712;2022-09-01T04:58:29;17.10;;;15.32;;
23370;SDS011;11858;51.056;3.712;2022-09-01T05:00:55;16.75;;;15.27;;
23370;SDS011;11858;51.056;3.712;2022-09-01T05:03:21;15.75;;;14.55;;
23370;SDS011;11858;51.056;3.712;2022-09-01T05:05:48;16.67;;;15.02;;
23370;SDS011;11858;51.056;3.712;2022-09-01T05:08:16;19.45;;;14.70;;
23370;SDS011;11858;51.056;3.712;2022-09-01T05:10:45;16.30;;;14.80;;
23370;SDS011;11858;51.056;3.712;2022-09-01T05:13:18;18.02;;;14.63;;
23370;SDS011;11858;51.056;3.712;2022-09-01T05:15:46;15.50;;;14.30;;
23370;SDS011;11858;51.056;3.712;2022-09-01T05:18:14;15.40;;;14.15;;
23370;SDS011;11858;51.056;3.712;2022-09-01T05:20:47;21.83;;;14.15;;
23370;SDS011;11858;51.056;3.712;2022-09-01T05:23:15;15.43;;;13.90;;
23370;SDS011;11858;51.056;3.712;2022-09-01T05:25:50;16.50;;;14.90;;
23370;SDS011;11858;51.056;3.712;2022-09-01T05:28:19;16.42;;;14.77;;
23370;SDS011;11858;51.056;3.712;2022-09-01T05:30:51;15.15;;;13.57;;
23370;SDS011;11858;51.056;3.712;2022-09-01T05:33:19;16.52;;;14.85;;
23370;SDS011;11858;51.056;3.712;2022-09-01T05:35:54;16.35;;;14.77;;
23370;SDS011;11858;51.056;3.712;2022-09-01T05:38:22;16.77;;;15.27;;
23370;SDS011;11858;51.056;3.712;2022-09-01T05:40:58;17.80;;;15.57;;
23370;SDS011;11858;51.056;3.712;2022-09-01T05:43:28;16.60;;;15.15;;
23370;SDS011;11858;51.056;3.712;2022-09-01T05:45:58;17.98;;;16.42;;
23370;SDS011;11858;51.056;3.712;2022-09-01T05:48:28;16.63;;;15.23;;
23370;SDS011;11858;51.056;3.712;2022-09-01T05:50:56;20.90;;;15.98;;
23370;SDS011;11858;51.056;3.712;2022-09-01T05:53:24;16.88;;;15.10;;
23370;SDS011;11858;51.056;3.712;2022-09-01T05:55:52;16.98;;;15.10;;
23370;SDS011;11858;51.056;3.712;2022-09-01T05:58:21;19.63;;;15.05;;
23370;SDS011;11858;51.056;3.712;2022-09-01T06:00:49;18.05;;;15.30;;
23370;SDS011;11858;51.056;3.712;2022-09-01T06:03:19;18.92;;;15.07;;
23370;SDS011;11858;51.056;3.712;2022-09-01T06:05:46;17.10;;;15.60;;
23370;SDS011;11858;51.056;3.712;2022-09-01T06:08:17;17.50;;;15.70;;
23370;SDS011;11858;51.056;3.712;2022-09-01T06:10:49;17.88;;;15.98;;
23370;SDS011;11858;51.056;3.712;2022-09-01T06:13:17;16.40;;;14.90;;
23370;SDS011;11858;51.056;3.712;2022-09-01T06:15:46;16.35;;;14.85;;
23370;SDS011;11858;51.056;3.712;2022-09-01T06:18:19;17.23;;;15.45;;
23370;SDS011;11858;51.056;3.712;2022-09-01T06:20:46;17.90;;;16.17;;
23370;SDS011;11858;51.056;3.712;2022-09-01T06:23:13;17.33;;;15.73;;
23370;SDS011;11858;51.056;3.712;2022-09-01T06:25:42;17.48;;;15.82;;
23370;SDS011;11858;51.056;3.712;2022-09-01T06:28:19;19.38;;;15.45;;
23370;SDS011;11858;51.056;3.712;2022-09-01T06:30:48;17.17;;;15.57;;
23370;SDS011;11858;51.056;3.712;2022-09-01T06:33:15;17.63;;;15.18;;
23370;SDS011;11858;51.056;3.712;2022-09-01T06:35:42;17.20;;;15.50;;
23370;SDS011;11858;51.056;3.712;2022-09-01T06:38:11;17.50;;;15.90;;
23370;SDS011;11858;51.056;3.712;2022-09-01T06:40:43;18.33;;;16.23;;
23370;SDS011;11858;51.056;3.712;2022-09-01T06:43:10;23.40;;;16.40;;
23370;SDS011;11858;51.056;3.712;2022-09-01T06:45:39;19.15;;;17.35;;
23370;SDS011;11858;51.056;3.712;2022-09-01T06:48:07;18.50;;;16.75;;
23370;SDS011;11858;51.056;3.712;2022-09-01T06:50:39;19.67;;;17.30;;
23370;SDS011;11858;51.056;3.712;2022-09-01T06:53:06;22.30;;;17.50;;
23370;SDS011;11858;51.056;3.712;2022-09-01T06:55:39;25.25;;;17.60;;
23370;SDS011;11858;51.056;3.712;2022-09-01T06:58:09;25.10;;;16.98;;
23370;SDS011;11858;51.056;3.712;2022-09-01T07:00:39;21.70;;;17.67;;
23370;SDS011;11858;51.056;3.712;2022-09-01T07:03:11;20.08;;;17.65;;
23370;SDS011;11858;51.056;3.712;2022-09-01T07:05:42;26.23;;;18.10;;
23370;SDS011;11858;51.056;3.712;2022-09-01T07:08:16;19.80;;;17.65;;
23370;SDS011;11858;51.056;3.712;2022-09-01T07:10:49;20.17;;;18.10;;
23370;SDS011;11858;51.056;3.712;2022-09-01T07:13:20;20.30;;;18.15;;
23370;SDS011;11858;51.056;3.712;2022-09-01T07:15:49;22.30;;;15.70;;
23370;SDS011;11858;51.056;3.712;2022-09-01T07:18:21;23.73;;;16.10;;
23370;SDS011;11858;51.056;3.712;2022-09-01T07:20:52;19.95;;;16.50;;
23370;SDS011;11858;51.056;3.712;2022-09-01T07:23:19;24.05;;;16.63;;
23370;SDS011;11858;51.056;3.712;2022-09-01T07:25:48;23.15;;;17.98;;
23370;SDS011;11858;51.056;3.712;2022-09-01T07:28:21;23.67;;;17.48;;
23370;SDS011;11858;51.056;3.712;2022-09-01T07:30:50;19.88;;;16.92;;
23370;SDS011;11858;51.056;3.712;2022-09-01T07:33:32;17.85;;;15.68;;
23370;SDS011;11858;51.056;3.712;2022-09-01T07:35:59;19.88;;;16.75;;
23370;SDS011;11858;51.056;3.712;2022-09-01T07:38:28;22.45;;;16.05;;
23370;SDS011;11858;51.056;3.712;2022-09-01T07:40:54;18.55;;;16.55;;
23370;SDS011;11858;51.056;3.712;2022-09-01T07:43:21;26.30;;;16.90;;
23370;SDS011;11858;51.056;3.712;2022-09-01T07:45:53;21.88;;;17.23;;
23370;SDS011;11858;51.056;3.712;2022-09-01T07:48:23;17.83;;;16.00;;
23370;SDS011;11858;51.056;3.712;2022-09-01T07:50:53;18.98;;;17.13;;
23370;SDS011;11858;51.056;3.712;2022-09-01T07:53:22;23.42;;;17.70;;
23370;SDS011;11858;51.056;3.712;2022-09-01T07:55:55;20.90;;;17.77;;
23370;SDS011;11858;51.056;3.712;2022-09-01T07:58:24;18.17;;;16.30;;
23370;SDS011;11858;51.056;3.712;2022-09-01T08:00:53;22.10;;;17.20;;
23370;SDS011;11858;51.056;3.712;2022-09-01T08:03:26;27.27;;;16.10;;
23370;SDS011;11858;51.056;3.712;2022-09-01T08:05:53;27.30;;;16.50;;
23370;SDS011;11858;51.056;3.712;2022-09-01T08:08:25;24.40;;;16.13;;
23370;SDS011;11858;51.056;3.712;2022-09-01T08:10:51;24.95;;;17.05;;
23370;SDS011;11858;51.056;3.712;2022-09-01T08:13:18;30.27;;;16.80;;
23370;SDS011;11858;51.056;3.712;2022-09-01T08:15:44;17.83;;;16.05;;
23370;SDS011;11858;51.056;3.712;2022-09-01T08:18:10;29.08;;;16.05;;
23370;SDS011;11858;51.056;3.712;2022-09-01T08:20:38;28.33;;;16.60;;
23370;SDS011;11858;51.056;3.712;2022-09-01T08:23:09;25.10;;;17.42;;
23370;SDS011;11858;51.056;3.712;2022-09-01T08:25:36;19.15;;;16.67;;
23370;SDS011;11858;51.056;3.712;2022-09-01T08:28:02;23.73;;;17.15;;
23370;SDS011;11858;51.056;3.712;2022-09-01T08:30:29;18.17;;;16.38;;
23370;SDS011;11858;51.056;3.712;2022-09-01T08:33:01;21.42;;;17.48;;
23370;SDS011;11858;51.056;3.712;2022-09-01T08:35:27;19.85;;;16.95;;
23370;SDS011;11858;51.056;3.712;2022-09-01T08:37:53;17.27;;;15.52;;
23370;SDS011;11858;51.056;3.712;2022-09-01T08:40:20;18.17;;;15.73;;
23370;SDS011;11858;51.056;3.712;2022-09-01T08:47:58;20.38;;;15.50;;
23370;SDS011;11858;51.056;3.712;2022-09-01T08:50:58;15.25;;;13.68;;
23370;SDS011;11858;51.056;3.712;2022-09-01T08:53:35;16.73;;;13.95;;
23370;SDS011;11858;51.056;3.712;2022-09-01T08:56:08;16.88;;;13.95;;
23370;SDS011;11858;51.056;3.712;2022-09-01T08:58:36;18.90;;;13.38;;
23370;SDS011;11858;51.056;3.712;2022-09-01T09:01:07;22.50;;;14.73;;
23370;SDS011;11858;51.056;3.712;2022-09-01T09:14:44;14.93;;;13.33;;
23370;SDS011;11858;51.056;3.712;2022-09-01T09:16:59;15.60;;;13.48;;
23370;SDS011;11858;51.056;3.712;2022-09-01T09:19:33;16.45;;;13.00;;
23370;SDS011;11858;51.056;3.712;2022-09-01T09:22:01;20.60;;;13.63;;
23370;SDS011;11858;51.056;3.712;2022-09-01T09:24:32;15.40;;;12.48;;
23370;SDS011;11858;51.056;3.712;2022-09-01T09:29:45;15.88;;;13.27;;
23370;SDS011;11858;51.056;3.712;2022-09-01T09:32:12;15.30;;;12.52;;
23370;SDS011;11858;51.056;3.712;2022-09-01T09:34:39;16.63;;;13.73;;
23370;SDS011;11858;51.056;3.712;2022-09-01T09:45:33;13.43;;;11.70;;
23370;SDS011;11858;51.056;3.712;2022-09-01T09:48:05;15.20;;;12.90;;
23370;SDS011;11858;51.056;3.712;2022-09-01T09:50:50;14.45;;;12.20;;
23370;SDS011;11858;51.056;3.712;2022-09-01T09:56:00;15.95;;;13.07;;
23370;SDS011;11858;51.056;3.712;2022-09-01T09:58:37;18.30;;;12.60;;
23370;SDS011;11858;51.056;3.712;2022-09-01T10:03:49;15.05;;;12.50;;
23370;SDS011;11858;51.056;3.712;2022-09-01T10:06:36;14.45;;;12.80;;
23370;SDS011;11858;51.056;3.712;2022-09-01T10:09:06;13.32;;;12.13;;
23370;SDS011;11858;51.056;3.712;2022-09-01T10:11:39;18.52;;;12.50;;
23370;SDS011;11858;51.056;3.712;2022-09-01T10:16:43;13.13;;;11.77;;
23370;SDS011;11858;51.056;3.712;2022-09-01T10:19:14;13.93;;;11.88;;
23370;SDS011;11858;51.056;3.712;2022-09-01T10:21:41;13.55;;;12.35;;
23370;SDS011;11858;51.056;3.712;2022-09-01T10:26:40;13.10;;;11.77;;
23370;SDS011;11858;51.056;3.712;2022-09-01T10:29:12;15.77;;;11.98;;
23370;SDS011;11858;51.056;3.712;2022-09-01T10:31:43;12.98;;;11.75;;
23370;SDS011;11858;51.056;3.712;2022-09-01T10:34:10;16.00;;;11.98;;
23370;SDS011;11858;51.056;3.712;2022-09-01T10:36:43;11.63;;;10.77;;
23370;SDS011;11858;51.056;3.712;2022-09-01T10:39:11;13.02;;;11.80;;
23370;SDS011;11858;51.056;3.712;2022-09-01T10:44:10;15.73;;;11.18;;
23370;SDS011;11858;51.056;3.712;2022-09-01T10:46:43;13.65;;;11.63;;
23370;SDS011;11858;51.056;3.712;2022-09-01T10:49:20;13.23;;;12.23;;
23370;SDS011;11858;51.056;3.712;2022-09-01T10:51:47;12.60;;;11.60;;
23370;SDS011;11858;51.056;3.712;2022-09-01T10:57:50;14.32;;;12.85;;
23370;SDS011;11858;51.056;3.712;2022-09-01T11:13:40;12.32;;;11.13;;
23370;SDS011;11858;51.056;3.712;2022-09-01T11:16:43;11.95;;;11.00;;
23370;SDS011;11858;51.056;3.712;2022-09-01T11:22:09;13.32;;;11.95;;
23370;SDS011;11858;51.056;3.712;2022-09-01T11:27:12;13.70;;;12.43;;
23370;SDS011;11858;51.056;3.712;2022-09-01T11:38:56;17.05;;;11.90;;
23370;SDS011;11858;51.056;3.712;2022-09-01T11:44:46;12.82;;;11.65;;
23370;SDS011;11858;51.056;3.712;2022-09-01T11:47:17;11.77;;;10.77;;
23370;SDS011;11858;51.056;3.712;2022-09-01T11:52:26;15.10;;;11.40;;
23370;SDS011;11858;51.056;3.712;2022-09-01T11:54:54;11.88;;;10.80;;
23370;SDS011;11858;51.056;3.712;2022-09-01T11:57:23;12.38;;;11.20;;
23370;SDS011;11858;51.056;3.712;2022-09-01T11:59:52;13.07;;;11.32;;
23370;SDS011;11858;51.056;3.712;2022-09-01T12:02:30;12.55;;;11.20;;
23370;SDS011;11858;51.056;3.712;2022-09-01T12:04:59;11.55;;;10.65;;
23370;SDS011;11858;51.056;3.712;2022-09-01T12:07:29;10.93;;;10.13;;
23370;SDS011;11858;51.056;3.712;2022-09-01T12:10:03;11.77;;;10.77;;
23370;SDS011;11858;51.056;3.712;2022-09-01T12:12:39;13.38;;;12.10;;
23370;SDS011;11858;51.056;3.712;2022-09-01T12:15:18;11.65;;;10.70;;
23370;SDS011;11858;51.056;3.712;2022-09-01T12:17:47;12.52;;;11.20;;
23370;SDS011;11858;51.056;3.712;2022-09-01T12:20:27;12.15;;;11.10;;
23370;SDS011;11858;51.056;3.712;2022-09-01T12:22:56;12.73;;;11.40;;
23370;SDS011;11858;51.056;3.712;2022-09-01T12:25:27;12.32;;;10.95;;
23370;SDS011;11858;51.056;3.712;2022-09-01T12:28:00;11.98;;;10.93;;
23370;SDS011;11858;51.056;3.712;2022-09-01T12:30:27;14.57;;;10.80;;
23370;SDS011;11858;51.056;3.712;2022-09-01T12:32:54;12.15;;;11.02;;
23370;SDS011;11858;51.056;3.712;2022-09-01T12:35:24;13.40;;;12.10;;
23370;SDS011;11858;51.056;3.712;2022-09-01T12:37:51;12.27;;;11.00;;
23370;SDS011;11858;51.056;3.712;2022-09-01T12:40:38;12.88;;;11.60;;
23370;SDS011;11858;51.056;3.712;2022-09-01T12:43:03;12.63;;;11.73;;
23370;SDS011;11858;51.056;3.712;2022-09-01T12:48:27;13.07;;;11.95;;
23370;SDS011;11858;51.056;3.712;2022-09-01T12:50:59;12.63;;;11.60;;
23370;SDS011;11858;51.056;3.712;2022-09-01T12:53:56;12.85;;;11.40;;
23370;SDS011;11858;51.056;3.712;2022-09-01T13:01:49;12.65;;;11.65;;
23370;SDS011;11858;51.056;3.712;2022-09-01T13:06:50;12.52;;;11.20;;
23370;SDS011;11858;51.056;3.712;2022-09-01T13:09:16;12.80;;;11.90;;
23370;SDS011;11858;51.056;3.712;2022-09-01T13:11:42;12.73;;;11.50;;
23370;SDS011;11858;51.056;3.712;2022-09-01T13:14:11;11.90;;;11.02;;
23370;SDS011;11858;51.056;3.712;2022-09-01T13:16:38;12.55;;;11.15;;
23370;SDS011;11858;51.056;3.712;2022-09-01T13:19:03;12.30;;;11.00;;
23370;SDS011;11858;51.056;3.712;2022-09-01T13:21:31;12.13;;;10.90;;
23370;SDS011;11858;51.056;3.712;2022-09-01T13:23:59;11.40;;;10.60;;
23370;SDS011;11858;51.056;3.712;2022-09-01T13:26:29;11.40;;;10.60;;
23370;SDS011;11858;51.056;3.712;2022-09-01T13:28:56;11.73;;;10.68;;
23370;SDS011;11858;51.056;3.712;2022-09-01T13:31:23;12.52;;;11.07;;
23370;SDS011;11858;51.056;3.712;2022-09-01T13:33:49;12.13;;;11.02;;
23370;SDS011;11858;51.056;3.712;2022-09-01T13:36:15;17.75;;;11.70;;
23370;SDS011;11858;51.056;3.712;2022-09-01T13:38:41;12.50;;;11.40;;
23370;SDS011;11858;51.056;3.712;2022-09-01T13:41:07;12.40;;;11.20;;
23370;SDS011;11858;51.056;3.712;2022-09-01T13:43:35;12.15;;;11.25;;
23370;SDS011;11858;51.056;3.712;2022-09-01T13:46:01;12.73;;;11.70;;
23370;SDS011;11858;51.056;3.712;2022-09-01T13:48:27;13.15;;;11.90;;
23370;SDS011;11858;51.056;3.712;2022-09-01T13:50:53;13.48;;;11.75;;
23370;SDS011;11858;51.056;3.712;2022-09-01T13:53:20;12.82;;;11.60;;
23370;SDS011;11858;51.056;3.712;2022-09-01T13:55:46;13.88;;;11.38;;
23370;SDS011;11858;51.056;3.712;2022-09-01T13:58:13;12.68;;;11.77;;
23370;SDS011;11858;51.056;3.712;2022-09-01T14:00:41;17.95;;;11.88;;
23370;SDS011;11858;51.056;3.712;2022-09-01T14:03:14;15.13;;;13.57;;
23370;SDS011;11858;51.056;3.712;2022-09-01T14:05:46;14.05;;;12.95;;
23370;SDS011;11858;51.056;3.712;2022-09-01T14:08:13;15.00;;;13.75;;
23370;SDS011;11858;51.056;3.712;2022-09-01T14:10:42;14.32;;;13.05;;
23370;SDS011;11858;51.056;3.712;2022-09-01T14:13:09;14.82;;;13.73;;
23370;SDS011;11858;51.056;3.712;2022-09-01T14:15:37;15.73;;;14.43;;
23370;SDS011;11858;51.056;3.712;2022-09-01T14:18:03;14.82;;;13.27;;
23370;SDS011;11858;51.056;3.712;2022-09-01T14:20:31;15.52;;;14.25;;
23370;SDS011;11858;51.056;3.712;2022-09-01T14:23:00;14.70;;;13.73;;
23370;SDS011;11858;51.056;3.712;2022-09-01T14:25:28;15.07;;;12.68;;
23370;SDS011;11858;51.056;3.712;2022-09-01T14:27:57;14.27;;;13.10;;
23370;SDS011;11858;51.056;3.712;2022-09-01T14:30:25;14.10;;;13.20;;
23370;SDS011;11858;51.056;3.712;2022-09-01T14:32:52;14.85;;;13.55;;
23370;SDS011;11858;51.056;3.712;2022-09-01T14:35:19;16.40;;;13.50;;
23370;SDS011;11858;51.056;3.712;2022-09-01T14:37:49;14.77;;;13.55;;
23370;SDS011;11858;51.056;3.712;2022-09-01T14:40:16;14.27;;;13.27;;
23370;SDS011;11858;51.056;3.712;2022-09-01T14:42:44;14.70;;;13.27;;
23370;SDS011;11858;51.056;3.712;2022-09-01T14:45:13;14.55;;;13.48;;
23370;SDS011;11858;51.056;3.712;2022-09-01T14:47:43;15.38;;;14.20;;
23370;SDS011;11858;51.056;3.712;2022-09-01T14:50:10;15.30;;;13.77;;
23370;SDS011;11858;51.056;3.712;2022-09-01T14:52:36;15.32;;;14.10;;
23370;SDS011;11858;51.056;3.712;2022-09-01T14:55:03;15.52;;;14.23;;
23370;SDS011;11858;51.056;3.712;2022-09-01T14:57:30;15.60;;;14.07;;
23370;SDS011;11858;51.056;3.712;2022-09-01T14:59:56;16.33;;;14.60;;
23370;SDS011;11858;51.056;3.712;2022-09-01T15:02:23;14.60;;;13.40;;
23370;SDS011;11858;51.056;3.712;2022-09-01T15:04:50;15.52;;;14.30;;
23370;SDS011;11858;51.056;3.712;2022-09-01T15:07:17;17.08;;;14.48;;
23370;SDS011;11858;51.056;3.712;2022-09-01T15:09:44;15.57;;;14.15;;
23370;SDS011;11858;51.056;3.712;2022-09-01T15:12:16;16.50;;;15.10;;
23370;SDS011;11858;51.056;3.712;2022-09-01T15:14:41;17.73;;;15.73;;
23370;SDS011;11858;51.056;3.712;2022-09-01T15:17:07;16.98;;;15.40;;
23370;SDS011;11858;51.056;3.712;2022-09-01T15:19:34;18.35;;;16.63;;
23370;SDS011;11858;51.056;3.712;2022-09-01T15:22:02;18.52;;;17.05;;
23370;SDS011;11858;51.056;3.712;2022-09-01T15:24:32;16.60;;;15.27;;
23370;SDS011;11858;51.056;3.712;2022-09-01T15:26:57;16.33;;;14.93;;
23370;SDS011;11858;51.056;3.712;2022-09-01T15:29:23;17.35;;;15.70;;
23370;SDS011;11858;51.056;3.712;2022-09-01T15:31:49;17.05;;;15.52;;
23370;SDS011;11858;51.056;3.712;2022-09-01T15:34:15;17.52;;;16.15;;
23370;SDS011;11858;51.056;3.712;2022-09-01T15:36:42;16.05;;;14.50;;
23370;SDS011;11858;51.056;3.712;2022-09-01T15:39:09;16.27;;;15.05;;
23370;SDS011;11858;51.056;3.712;2022-09-01T15:41:36;16.10;;;14.57;;
23370;SDS011;11858;51.056;3.712;2022-09-01T15:44:03;16.42;;;14.60;;
23370;SDS011;11858;51.056;3.712;2022-09-01T15:46:33;15.82;;;14.35;;
23370;SDS011;11858;51.056;3.712;2022-09-01T15:49:00;13.80;;;12.65;;
23370;SDS011;11858;51.056;3.712;2022-09-01T15:54:15;16.48;;;14.90;;
23370;SDS011;11858;51.056;3.712;2022-09-01T15:56:42;17.58;;;15.70;;
23370;SDS011;11858;51.056;3.712;2022-09-01T15:59:11;16.88;;;15.30;;
23370;SDS011;11858;51.056;3.712;2022-09-01T16:01:39;19.52;;;17.38;;
23370;SDS011;11858;51.056;3.712;2022-09-01T16:04:07;17.48;;;15.77;;
23370;SDS011;11858;51.056;3.712;2022-09-01T16:06:40;15.73;;;13.90;;